sensor_id;sensor_type;location;lat;lon;timestamp;P1;durP1;ratioP1;P2;durP2;ratioP2
84523;SDS011;74765;44.538;18.668;2024-01-10T00:02:04;163.13;;;53.40;;
84523;SDS011;74765;44.538;18.668;2024-01-10T00:04:30;174.15;;;63.58;;
84523;SDS011;74765;44.538;18.668;2024-01-10T00:06:55;148.73;;;50.33;;
84523;SDS011;74765;44.538;18.668;2024-01-10T00:09:21;138.68;;;48.47;;
84523;SDS011;74765;44.538;18.668;2024-01-10T00:11:48;143.68;;;52.70;;
84523;SDS011;74765;44.538;18.668;2024-01-10T00:14:13;158.63;;;54.28;;
84523;SDS011;74765;44.538;18.668;2024-01-10T00:16:39;141.20;;;50.97;;
84523;SDS011;74765;44.538;18.668;2024-01-10T00:19:05;132.15;;;50.75;;
84523;SDS011;74765;44.538;18.668;2024-01-10T00:21:31;178.95;;;59.28;;
84523;SDS011;74765;44.538;18.668;2024-01-10T00:23:57;204.80;;;71.00;;
84523;SDS011;74765;44.538;18.668;2024-01-10T00:26:23;209.68;;;73.72;;
84523;SDS011;74765;44.538;18.668;2024-01-10T00:28:48;181.02;;;60.20;;
84523;SDS011;74765;44.538;18.668;2024-01-10T00:31:14;210.77;;;73.55;;
84523;SDS011;74765;44.538;18.668;2024-01-10T00:33:40;171.43;;;64.22;;
84523;SDS011;74765;44.538;18.668;2024-01-10T00:36:06;162.65;;;55.58;;
84523;SDS011;74765;44.538;18.668;2024-01-10T00:38:32;145.20;;;51.65;;
84523;SDS011;74765;44.538;18.668;2024-01-10T00:40:58;178.73;;;59.55;;
84523;SDS011;74765;44.538;18.668;2024-01-10T00:43:24;166.23;;;55.92;;
84523;SDS011;74765;44.538;18.668;2024-01-10T00:45:50;168.40;;;62.20;;
84523;SDS011;74765;44.538;18.668;2024-01-10T00:48:16;169.73;;;59.15;;
84523;SDS011;74765;44.538;18.668;2024-01-10T00:50:45;156.55;;;51.97;;
84523;SDS011;74765;44.538;18.668;2024-01-10T00:53:11;149.43;;;54.03;;
84523;SDS011;74765;44.538;18.668;2024-01-10T00:55:37;173.90;;;61.63;;
84523;SDS011;74765;44.538;18.668;2024-01-10T00:58:03;154.32;;;58.42;;
84523;SDS011;74765;44.538;18.668;2024-01-10T01:00:29;142.52;;;54.40;;
84523;SDS011;74765;44.538;18.668;2024-01-10T01:02:54;115.63;;;46.05;;
84523;SDS011;74765;44.538;18.668;2024-01-10T01:05:20;110.03;;;42.85;;
84523;SDS011;74765;44.538;18.668;2024-01-10T01:07:46;111.45;;;45.13;;
84523;SDS011;74765;44.538;18.668;2024-01-10T01:10:11;116.65;;;45.20;;
84523;SDS011;74765;44.538;18.668;2024-01-10T01:12:37;93.53;;;38.80;;
84523;SDS011;74765;44.538;18.668;2024-01-10T01:15:04;77.35;;;32.90;;
84523;SDS011;74765;44.538;18.668;2024-01-10T01:17:30;85.97;;;36.03;;
84523;SDS011;74765;44.538;18.668;2024-01-10T01:19:56;110.40;;;42.65;;
84523;SDS011;74765;44.538;18.668;2024-01-10T01:22:22;89.90;;;36.80;;
84523;SDS011;74765;44.538;18.668;2024-01-10T01:24:48;100.68;;;39.97;;
84523;SDS011;74765;44.538;18.668;2024-01-10T01:27:13;103.15;;;39.58;;
84523;SDS011;74765;44.538;18.668;2024-01-10T01:29:39;93.30;;;38.38;;
84523;SDS011;74765;44.538;18.668;2024-01-10T01:32:05;107.82;;;40.30;;
84523;SDS011;74765;44.538;18.668;2024-01-10T01:34:31;97.03;;;39.70;;
84523;SDS011;74765;44.538;18.668;2024-01-10T01:36:57;118.53;;;47.80;;
84523;SDS011;74765;44.538;18.668;2024-01-10T01:39:22;117.45;;;46.20;;
84523;SDS011;74765;44.538;18.668;2024-01-10T01:41:48;113.65;;;42.95;;
84523;SDS011;74765;44.538;18.668;2024-01-10T01:44:14;104.60;;;40.95;;
84523;SDS011;74765;44.538;18.668;2024-01-10T01:46:40;104.82;;;38.38;;
84523;SDS011;74765;44.538;18.668;2024-01-10T01:49:06;92.57;;;36.83;;
84523;SDS011;74765;44.538;18.668;2024-01-10T01:51:32;85.25;;;35.75;;
84523;SDS011;74765;44.538;18.668;2024-01-10T01:54:02;85.47;;;34.15;;
84523;SDS011;74765;44.538;18.668;2024-01-10T01:56:34;84.72;;;33.13;;
84523;SDS011;74765;44.538;18.668;2024-01-10T01:59:01;97.82;;;38.58;;
84523;SDS011;74765;44.538;18.668;2024-01-10T02:01:29;107.10;;;43.78;;
84523;SDS011;74765;44.538;18.668;2024-01-10T02:03:55;104.90;;;43.17;;
84523;SDS011;74765;44.538;18.668;2024-01-10T02:06:21;103.53;;;42.88;;
84523;SDS011;74765;44.538;18.668;2024-01-10T02:08:47;100.97;;;39.45;;
84523;SDS011;74765;44.538;18.668;2024-01-10T02:11:13;95.93;;;36.75;;
84523;SDS011;74765;44.538;18.668;2024-01-10T02:13:38;93.22;;;41.47;;
84523;SDS011;74765;44.538;18.668;2024-01-10T02:16:06;96.50;;;39.72;;
84523;SDS011;74765;44.538;18.668;2024-01-10T02:18:32;106.07;;;42.70;;
84523;SDS011;74765;44.538;18.668;2024-01-10T02:21:00;112.75;;;45.17;;
84523;SDS011;74765;44.538;18.668;2024-01-10T02:23:26;105.45;;;40.47;;
84523;SDS011;74765;44.538;18.668;2024-01-10T02:25:52;112.40;;;42.83;;
84523;SDS011;74765;44.538;18.668;2024-01-10T02:28:18;102.10;;;41.38;;
84523;SDS011;74765;44.538;18.668;2024-01-10T02:30:43;99.55;;;39.88;;
84523;SDS011;74765;44.538;18.668;2024-01-10T02:33:09;101.03;;;39.25;;
84523;SDS011;74765;44.538;18.668;2024-01-10T02:35:35;91.47;;;34.63;;
84523;SDS011;74765;44.538;18.668;2024-01-10T02:38:01;78.60;;;29.58;;
84523;SDS011;74765;44.538;18.668;2024-01-10T02:40:27;77.15;;;31.52;;
84523;SDS011;74765;44.538;18.668;2024-01-10T02:42:52;79.38;;;32.70;;
84523;SDS011;74765;44.538;18.668;2024-01-10T02:45:18;85.38;;;33.05;;
84523;SDS011;74765;44.538;18.668;2024-01-10T02:47:44;71.35;;;32.17;;
84523;SDS011;74765;44.538;18.668;2024-01-10T02:50:11;77.53;;;30.92;;
84523;SDS011;74765;44.538;18.668;2024-01-10T02:52:36;75.53;;;33.58;;
84523;SDS011;74765;44.538;18.668;2024-01-10T02:55:02;78.68;;;30.58;;
84523;SDS011;74765;44.538;18.668;2024-01-10T02:57:28;81.68;;;31.30;;
84523;SDS011;74765;44.538;18.668;2024-01-10T02:59:54;76.72;;;31.90;;
84523;SDS011;74765;44.538;18.668;2024-01-10T03:02:20;87.75;;;33.33;;
84523;SDS011;74765;44.538;18.668;2024-01-10T03:04:45;80.82;;;34.47;;
84523;SDS011;74765;44.538;18.668;2024-01-10T03:07:11;77.10;;;34.03;;
84523;SDS011;74765;44.538;18.668;2024-01-10T03:09:37;81.05;;;33.85;;
84523;SDS011;74765;44.538;18.668;2024-01-10T03:12:03;80.38;;;33.55;;
84523;SDS011;74765;44.538;18.668;2024-01-10T03:14:29;82.97;;;31.45;;
84523;SDS011;74765;44.538;18.668;2024-01-10T03:16:54;81.88;;;32.60;;
84523;SDS011;74765;44.538;18.668;2024-01-10T03:19:20;79.28;;;33.42;;
84523;SDS011;74765;44.538;18.668;2024-01-10T03:21:46;78.13;;;31.08;;
84523;SDS011;74765;44.538;18.668;2024-01-10T03:24:11;79.53;;;32.45;;
84523;SDS011;74765;44.538;18.668;2024-01-10T03:26:37;73.00;;;32.72;;
84523;SDS011;74765;44.538;18.668;2024-01-10T03:29:03;76.13;;;29.08;;
84523;SDS011;74765;44.538;18.668;2024-01-10T03:31:30;92.13;;;34.55;;
84523;SDS011;74765;44.538;18.668;2024-01-10T03:33:57;89.57;;;33.88;;
84523;SDS011;74765;44.538;18.668;2024-01-10T03:36:26;82.68;;;35.35;;
84523;SDS011;74765;44.538;18.668;2024-01-10T03:38:51;100.13;;;36.22;;
84523;SDS011;74765;44.538;18.668;2024-01-10T03:41:18;109.20;;;39.20;;
84523;SDS011;74765;44.538;18.668;2024-01-10T03:43:45;114.82;;;42.17;;
84523;SDS011;74765;44.538;18.668;2024-01-10T03:46:11;106.53;;;35.95;;
84523;SDS011;74765;44.538;18.668;2024-01-10T03:48:37;101.13;;;35.38;;
84523;SDS011;74765;44.538;18.668;2024-01-10T03:51:07;84.63;;;33.30;;
84523;SDS011;74765;44.538;18.668;2024-01-10T03:53:34;85.18;;;34.63;;
84523;SDS011;74765;44.538;18.668;2024-01-10T03:56:03;89.38;;;33.67;;
84523;SDS011;74765;44.538;18.668;2024-01-10T03:58:29;84.20;;;31.65;;
84523;SDS011;74765;44.538;18.668;2024-01-10T04:00:55;94.57;;;34.55;;
84523;SDS011;74765;44.538;18.668;2024-01-10T04:03:21;75.45;;;30.90;;
84523;SDS011;74765;44.538;18.668;2024-01-10T04:05:46;70.07;;;29.50;;
84523;SDS011;74765;44.538;18.668;2024-01-10T04:08:12;73.13;;;29.77;;
84523;SDS011;74765;44.538;18.668;2024-01-10T04:10:38;86.47;;;32.53;;
84523;SDS011;74765;44.538;18.668;2024-01-10T04:13:04;78.70;;;32.03;;
84523;SDS011;74765;44.538;18.668;2024-01-10T04:15:29;78.38;;;30.05;;
84523;SDS011;74765;44.538;18.668;2024-01-10T04:17:55;92.90;;;33.70;;
84523;SDS011;74765;44.538;18.668;2024-01-10T04:20:21;79.18;;;32.15;;
84523;SDS011;74765;44.538;18.668;2024-01-10T04:22:47;81.82;;;32.45;;
84523;SDS011;74765;44.538;18.668;2024-01-10T04:25:12;75.13;;;31.60;;
84523;SDS011;74765;44.538;18.668;2024-01-10T04:27:38;70.63;;;30.00;;
84523;SDS011;74765;44.538;18.668;2024-01-10T04:30:04;69.72;;;29.05;;
84523;SDS011;74765;44.538;18.668;2024-01-10T04:32:30;71.35;;;29.15;;
84523;SDS011;74765;44.538;18.668;2024-01-10T04:34:56;73.63;;;30.08;;
84523;SDS011;74765;44.538;18.668;2024-01-10T04:37:22;72.22;;;30.42;;
84523;SDS011;74765;44.538;18.668;2024-01-10T04:39:48;129.98;;;46.88;;
84523;SDS011;74765;44.538;18.668;2024-01-10T04:42:14;78.72;;;34.45;;
84523;SDS011;74765;44.538;18.668;2024-01-10T04:44:40;76.53;;;34.05;;
84523;SDS011;74765;44.538;18.668;2024-01-10T04:47:06;75.80;;;33.42;;
84523;SDS011;74765;44.538;18.668;2024-01-10T04:49:32;67.80;;;30.30;;
84523;SDS011;74765;44.538;18.668;2024-01-10T04:51:58;67.55;;;28.63;;
84523;SDS011;74765;44.538;18.668;2024-01-10T04:54:24;75.28;;;30.20;;
84523;SDS011;74765;44.538;18.668;2024-01-10T04:56:50;87.30;;;34.10;;
84523;SDS011;74765;44.538;18.668;2024-01-10T04:59:15;85.57;;;34.08;;
84523;SDS011;74765;44.538;18.668;2024-01-10T05:01:41;85.00;;;33.45;;
84523;SDS011;74765;44.538;18.668;2024-01-10T05:04:07;80.85;;;35.42;;
84523;SDS011;74765;44.538;18.668;2024-01-10T05:06:33;85.68;;;34.55;;
84523;SDS011;74765;44.538;18.668;2024-01-10T05:08:58;93.28;;;36.60;;
84523;SDS011;74765;44.538;18.668;2024-01-10T05:11:25;103.57;;;40.63;;
84523;SDS011;74765;44.538;18.668;2024-01-10T05:13:51;101.35;;;39.50;;
84523;SDS011;74765;44.538;18.668;2024-01-10T05:16:17;95.38;;;39.83;;
84523;SDS011;74765;44.538;18.668;2024-01-10T05:18:43;82.45;;;35.22;;
84523;SDS011;74765;44.538;18.668;2024-01-10T05:21:09;82.53;;;34.95;;
84523;SDS011;74765;44.538;18.668;2024-01-10T05:23:35;81.80;;;34.28;;
84523;SDS011;74765;44.538;18.668;2024-01-10T05:26:04;90.40;;;36.55;;
84523;SDS011;74765;44.538;18.668;2024-01-10T05:28:30;91.93;;;37.30;;
84523;SDS011;74765;44.538;18.668;2024-01-10T05:30:56;100.68;;;42.58;;
84523;SDS011;74765;44.538;18.668;2024-01-10T05:33:22;113.28;;;43.25;;
84523;SDS011;74765;44.538;18.668;2024-01-10T05:35:48;95.63;;;40.30;;
84523;SDS011;74765;44.538;18.668;2024-01-10T05:38:14;99.55;;;41.80;;
84523;SDS011;74765;44.538;18.668;2024-01-10T05:40:40;104.10;;;41.58;;
84523;SDS011;74765;44.538;18.668;2024-01-10T05:43:06;105.30;;;44.10;;
84523;SDS011;74765;44.538;18.668;2024-01-10T05:45:32;147.48;;;58.28;;
84523;SDS011;74765;44.538;18.668;2024-01-10T05:47:58;141.32;;;53.40;;
84523;SDS011;74765;44.538;18.668;2024-01-10T05:50:24;115.45;;;47.25;;
84523;SDS011;74765;44.538;18.668;2024-01-10T05:52:50;139.20;;;53.70;;
84523;SDS011;74765;44.538;18.668;2024-01-10T05:55:15;163.63;;;60.97;;
84523;SDS011;74765;44.538;18.668;2024-01-10T05:57:41;172.82;;;62.38;;
84523;SDS011;74765;44.538;18.668;2024-01-10T06:00:07;137.35;;;55.92;;
84523;SDS011;74765;44.538;18.668;2024-01-10T06:02:40;161.85;;;58.70;;
84523;SDS011;74765;44.538;18.668;2024-01-10T06:05:06;138.93;;;54.55;;
84523;SDS011;74765;44.538;18.668;2024-01-10T06:07:36;150.55;;;57.72;;
84523;SDS011;74765;44.538;18.668;2024-01-10T06:10:03;144.18;;;60.63;;
84523;SDS011;74765;44.538;18.668;2024-01-10T06:12:29;143.45;;;60.67;;
84523;SDS011;74765;44.538;18.668;2024-01-10T06:14:55;160.27;;;64.78;;
84523;SDS011;74765;44.538;18.668;2024-01-10T06:17:20;155.73;;;59.67;;
84523;SDS011;74765;44.538;18.668;2024-01-10T06:19:46;145.57;;;57.35;;
84523;SDS011;74765;44.538;18.668;2024-01-10T06:22:12;133.98;;;53.33;;
84523;SDS011;74765;44.538;18.668;2024-01-10T06:24:39;126.53;;;53.63;;
84523;SDS011;74765;44.538;18.668;2024-01-10T06:27:06;132.82;;;54.45;;
84523;SDS011;74765;44.538;18.668;2024-01-10T06:29:32;151.25;;;58.58;;
84523;SDS011;74765;44.538;18.668;2024-01-10T06:31:58;146.27;;;62.55;;
84523;SDS011;74765;44.538;18.668;2024-01-10T06:34:26;198.65;;;74.82;;
84523;SDS011;74765;44.538;18.668;2024-01-10T06:36:52;178.35;;;73.63;;
84523;SDS011;74765;44.538;18.668;2024-01-10T06:39:18;144.98;;;62.03;;
84523;SDS011;74765;44.538;18.668;2024-01-10T06:41:47;158.57;;;66.63;;
84523;SDS011;74765;44.538;18.668;2024-01-10T06:44:14;166.18;;;67.57;;
84523;SDS011;74765;44.538;18.668;2024-01-10T06:46:40;160.70;;;65.93;;
84523;SDS011;74765;44.538;18.668;2024-01-10T06:49:05;210.40;;;80.70;;
84523;SDS011;74765;44.538;18.668;2024-01-10T06:51:32;181.98;;;71.28;;
84523;SDS011;74765;44.538;18.668;2024-01-10T06:53:58;178.15;;;69.60;;
84523;SDS011;74765;44.538;18.668;2024-01-10T06:56:34;180.40;;;70.95;;
84523;SDS011;74765;44.538;18.668;2024-01-10T06:59:00;214.30;;;78.82;;
84523;SDS011;74765;44.538;18.668;2024-01-10T07:01:26;242.15;;;90.43;;
84523;SDS011;74765;44.538;18.668;2024-01-10T07:03:53;285.33;;;102.28;;
84523;SDS011;74765;44.538;18.668;2024-01-10T07:06:22;271.95;;;100.82;;
84523;SDS011;74765;44.538;18.668;2024-01-10T07:08:49;270.63;;;96.03;;
84523;SDS011;74765;44.538;18.668;2024-01-10T07:11:16;268.23;;;99.22;;
84523;SDS011;74765;44.538;18.668;2024-01-10T07:13:43;250.20;;;96.97;;
84523;SDS011;74765;44.538;18.668;2024-01-10T07:16:09;243.48;;;97.30;;
84523;SDS011;74765;44.538;18.668;2024-01-10T07:18:35;276.95;;;104.57;;
84523;SDS011;74765;44.538;18.668;2024-01-10T07:21:00;255.68;;;104.03;;
84523;SDS011;74765;44.538;18.668;2024-01-10T07:23:26;248.45;;;97.55;;
84523;SDS011;74765;44.538;18.668;2024-01-10T07:25:52;231.18;;;94.13;;
84523;SDS011;74765;44.538;18.668;2024-01-10T07:28:18;296.27;;;123.63;;
84523;SDS011;74765;44.538;18.668;2024-01-10T07:30:45;260.25;;;108.90;;
84523;SDS011;74765;44.538;18.668;2024-01-10T07:33:11;249.35;;;104.80;;
84523;SDS011;74765;44.538;18.668;2024-01-10T07:35:38;246.68;;;106.53;;
84523;SDS011;74765;44.538;18.668;2024-01-10T07:38:05;228.75;;;101.68;;
84523;SDS011;74765;44.538;18.668;2024-01-10T07:40:32;247.07;;;101.93;;
84523;SDS011;74765;44.538;18.668;2024-01-10T07:42:59;286.10;;;112.40;;
84523;SDS011;74765;44.538;18.668;2024-01-10T07:45:25;299.35;;;118.70;;
84523;SDS011;74765;44.538;18.668;2024-01-10T07:47:51;313.60;;;132.45;;
84523;SDS011;74765;44.538;18.668;2024-01-10T07:50:17;303.88;;;130.10;;
84523;SDS011;74765;44.538;18.668;2024-01-10T07:52:47;340.65;;;153.38;;
84523;SDS011;74765;44.538;18.668;2024-01-10T07:55:12;386.75;;;172.70;;
84523;SDS011;74765;44.538;18.668;2024-01-10T07:57:38;447.38;;;206.93;;
84523;SDS011;74765;44.538;18.668;2024-01-10T08:00:05;482.60;;;235.88;;
84523;SDS011;74765;44.538;18.668;2024-01-10T08:02:35;477.98;;;223.57;;
84523;SDS011;74765;44.538;18.668;2024-01-10T08:05:02;496.48;;;248.13;;
84523;SDS011;74765;44.538;18.668;2024-01-10T08:09:59;475.15;;;220.98;;
84523;SDS011;74765;44.538;18.668;2024-01-10T08:12:25;485.10;;;224.27;;
84523;SDS011;74765;44.538;18.668;2024-01-10T08:14:51;433.55;;;189.07;;
84523;SDS011;74765;44.538;18.668;2024-01-10T08:17:17;440.33;;;206.80;;
84523;SDS011;74765;44.538;18.668;2024-01-10T08:19:45;421.60;;;187.50;;
84523;SDS011;74765;44.538;18.668;2024-01-10T08:22:11;415.55;;;180.38;;
84523;SDS011;74765;44.538;18.668;2024-01-10T08:24:38;374.77;;;165.20;;
84523;SDS011;74765;44.538;18.668;2024-01-10T08:27:04;403.88;;;180.60;;
84523;SDS011;74765;44.538;18.668;2024-01-10T08:29:30;378.10;;;159.55;;
84523;SDS011;74765;44.538;18.668;2024-01-10T08:31:57;331.92;;;146.50;;
84523;SDS011;74765;44.538;18.668;2024-01-10T08:34:23;358.15;;;148.50;;
84523;SDS011;74765;44.538;18.668;2024-01-10T08:36:49;308.02;;;124.30;;
84523;SDS011;74765;44.538;18.668;2024-01-10T08:39:16;331.08;;;131.38;;
84523;SDS011;74765;44.538;18.668;2024-01-10T08:41:42;309.20;;;120.45;;
84523;SDS011;74765;44.538;18.668;2024-01-10T08:44:12;307.73;;;131.70;;
84523;SDS011;74765;44.538;18.668;2024-01-10T08:46:38;306.90;;;128.20;;
84523;SDS011;74765;44.538;18.668;2024-01-10T08:49:04;299.08;;;129.05;;
84523;SDS011;74765;44.538;18.668;2024-01-10T08:51:30;352.73;;;152.23;;
84523;SDS011;74765;44.538;18.668;2024-01-10T08:53:56;325.67;;;134.35;;
84523;SDS011;74765;44.538;18.668;2024-01-10T08:56:22;351.90;;;150.23;;
84523;SDS011;74765;44.538;18.668;2024-01-10T08:58:51;387.83;;;167.57;;
84523;SDS011;74765;44.538;18.668;2024-01-10T09:01:18;287.35;;;124.63;;
84523;SDS011;74765;44.538;18.668;2024-01-10T09:03:44;341.83;;;148.77;;
84523;SDS011;74765;44.538;18.668;2024-01-10T09:06:11;280.88;;;118.00;;
84523;SDS011;74765;44.538;18.668;2024-01-10T09:08:37;320.70;;;130.85;;
84523;SDS011;74765;44.538;18.668;2024-01-10T09:11:04;267.00;;;110.10;;
84523;SDS011;74765;44.538;18.668;2024-01-10T09:13:31;243.30;;;86.68;;
84523;SDS011;74765;44.538;18.668;2024-01-10T09:15:59;225.65;;;79.05;;
84523;SDS011;74765;44.538;18.668;2024-01-10T09:18:25;231.00;;;83.80;;
84523;SDS011;74765;44.538;18.668;2024-01-10T09:20:51;214.30;;;77.18;;
84523;SDS011;74765;44.538;18.668;2024-01-10T09:23:17;188.20;;;69.43;;
84523;SDS011;74765;44.538;18.668;2024-01-10T09:25:44;200.85;;;73.18;;
84523;SDS011;74765;44.538;18.668;2024-01-10T09:28:10;189.18;;;72.85;;
84523;SDS011;74765;44.538;18.668;2024-01-10T09:30:35;208.70;;;79.68;;
84523;SDS011;74765;44.538;18.668;2024-01-10T09:33:01;220.80;;;83.85;;
84523;SDS011;74765;44.538;18.668;2024-01-10T09:35:27;227.57;;;86.25;;
84523;SDS011;74765;44.538;18.668;2024-01-10T09:37:53;199.32;;;75.90;;
84523;SDS011;74765;44.538;18.668;2024-01-10T09:40:19;217.93;;;78.78;;
84523;SDS011;74765;44.538;18.668;2024-01-10T09:42:51;211.23;;;77.57;;
84523;SDS011;74765;44.538;18.668;2024-01-10T09:45:20;184.18;;;69.13;;
84523;SDS011;74765;44.538;18.668;2024-01-10T09:47:48;165.80;;;59.20;;
84523;SDS011;74765;44.538;18.668;2024-01-10T09:50:17;155.38;;;57.45;;
84523;SDS011;74765;44.538;18.668;2024-01-10T09:53:05;167.88;;;61.80;;
84523;SDS011;74765;44.538;18.668;2024-01-10T09:55:35;160.43;;;61.20;;
84523;SDS011;74765;44.538;18.668;2024-01-10T09:58:05;154.23;;;57.78;;
84523;SDS011;74765;44.538;18.668;2024-01-10T10:00:33;151.18;;;58.22;;
84523;SDS011;74765;44.538;18.668;2024-01-10T10:03:01;154.10;;;60.00;;
84523;SDS011;74765;44.538;18.668;2024-01-10T10:05:29;161.07;;;61.55;;
84523;SDS011;74765;44.538;18.668;2024-01-10T10:07:56;146.80;;;57.83;;
84523;SDS011;74765;44.538;18.668;2024-01-10T10:10:23;185.65;;;68.75;;
84523;SDS011;74765;44.538;18.668;2024-01-10T10:12:50;174.25;;;71.00;;
84523;SDS011;74765;44.538;18.668;2024-01-10T10:15:18;166.52;;;60.55;;
84523;SDS011;74765;44.538;18.668;2024-01-10T10:17:49;180.43;;;67.10;;
84523;SDS011;74765;44.538;18.668;2024-01-10T10:20:22;161.20;;;63.80;;
84523;SDS011;74765;44.538;18.668;2024-01-10T10:25:28;154.63;;;59.80;;
84523;SDS011;74765;44.538;18.668;2024-01-10T10:27:59;161.15;;;60.97;;
84523;SDS011;74765;44.538;18.668;2024-01-10T10:30:26;164.05;;;60.42;;
84523;SDS011;74765;44.538;18.668;2024-01-10T10:32:53;163.02;;;60.83;;
84523;SDS011;74765;44.538;18.668;2024-01-10T10:35:19;159.43;;;58.85;;
84523;SDS011;74765;44.538;18.668;2024-01-10T10:37:48;165.43;;;63.00;;
84523;SDS011;74765;44.538;18.668;2024-01-10T10:40:17;167.80;;;59.67;;
84523;SDS011;74765;44.538;18.668;2024-01-10T10:42:44;180.55;;;62.58;;
84523;SDS011;74765;44.538;18.668;2024-01-10T10:45:17;157.38;;;56.00;;
84523;SDS011;74765;44.538;18.668;2024-01-10T10:47:45;160.63;;;61.00;;
84523;SDS011;74765;44.538;18.668;2024-01-10T10:50:21;173.25;;;59.53;;
84523;SDS011;74765;44.538;18.668;2024-01-10T10:52:48;185.10;;;65.93;;
84523;SDS011;74765;44.538;18.668;2024-01-10T10:55:16;174.48;;;61.13;;
84523;SDS011;74765;44.538;18.668;2024-01-10T10:57:44;164.23;;;54.38;;
84523;SDS011;74765;44.538;18.668;2024-01-10T11:00:14;178.45;;;60.03;;
84523;SDS011;74765;44.538;18.668;2024-01-10T11:02:55;205.60;;;71.72;;
84523;SDS011;74765;44.538;18.668;2024-01-10T11:05:22;204.90;;;72.07;;
84523;SDS011;74765;44.538;18.668;2024-01-10T11:07:49;217.30;;;76.57;;
84523;SDS011;74765;44.538;18.668;2024-01-10T11:10:19;242.57;;;88.63;;
84523;SDS011;74765;44.538;18.668;2024-01-10T11:13:03;210.93;;;78.63;;
84523;SDS011;74765;44.538;18.668;2024-01-10T11:18:33;230.13;;;89.43;;
84523;SDS011;74765;44.538;18.668;2024-01-10T11:24:25;217.13;;;80.95;;
84523;SDS011;74765;44.538;18.668;2024-01-10T11:27:06;200.63;;;68.72;;
84523;SDS011;74765;44.538;18.668;2024-01-10T11:29:39;229.50;;;82.13;;
84523;SDS011;74765;44.538;18.668;2024-01-10T11:32:06;226.93;;;82.18;;
84523;SDS011;74765;44.538;18.668;2024-01-10T11:34:35;215.38;;;73.82;;
84523;SDS011;74765;44.538;18.668;2024-01-10T11:37:10;232.05;;;83.88;;
84523;SDS011;74765;44.538;18.668;2024-01-10T11:39:40;224.43;;;82.18;;
84523;SDS011;74765;44.538;18.668;2024-01-10T11:42:07;225.38;;;79.70;;
84523;SDS011;74765;44.538;18.668;2024-01-10T11:44:34;201.88;;;72.13;;
84523;SDS011;74765;44.538;18.668;2024-01-10T11:47:13;202.90;;;69.78;;
84523;SDS011;74765;44.538;18.668;2024-01-10T11:52:22;172.90;;;59.23;;
84523;SDS011;74765;44.538;18.668;2024-01-10T11:54:49;151.68;;;53.80;;
84523;SDS011;74765;44.538;18.668;2024-01-10T11:57:22;160.68;;;57.75;;
84523;SDS011;74765;44.538;18.668;2024-01-10T11:59:55;161.43;;;63.65;;
84523;SDS011;74765;44.538;18.668;2024-01-10T12:02:22;169.80;;;62.85;;
84523;SDS011;74765;44.538;18.668;2024-01-10T12:04:50;159.05;;;57.22;;
84523;SDS011;74765;44.538;18.668;2024-01-10T12:07:17;148.35;;;51.90;;
84523;SDS011;74765;44.538;18.668;2024-01-10T12:09:44;138.60;;;50.08;;
84523;SDS011;74765;44.538;18.668;2024-01-10T12:12:10;133.57;;;47.65;;
84523;SDS011;74765;44.538;18.668;2024-01-10T12:14:38;142.93;;;50.70;;
84523;SDS011;74765;44.538;18.668;2024-01-10T12:17:05;143.63;;;51.15;;
84523;SDS011;74765;44.538;18.668;2024-01-10T12:19:33;155.60;;;52.58;;
84523;SDS011;74765;44.538;18.668;2024-01-10T12:22:01;162.45;;;54.67;;
84523;SDS011;74765;44.538;18.668;2024-01-10T12:24:27;162.95;;;55.63;;
84523;SDS011;74765;44.538;18.668;2024-01-10T12:26:54;168.70;;;56.33;;
84523;SDS011;74765;44.538;18.668;2024-01-10T12:29:21;193.98;;;65.10;;
84523;SDS011;74765;44.538;18.668;2024-01-10T12:31:48;207.70;;;69.10;;
84523;SDS011;74765;44.538;18.668;2024-01-10T12:34:16;188.73;;;63.50;;
84523;SDS011;74765;44.538;18.668;2024-01-10T12:36:42;208.13;;;66.93;;
84523;SDS011;74765;44.538;18.668;2024-01-10T12:39:12;218.60;;;69.95;;
84523;SDS011;74765;44.538;18.668;2024-01-10T12:41:38;218.27;;;73.35;;
84523;SDS011;74765;44.538;18.668;2024-01-10T12:44:06;210.63;;;68.78;;
84523;SDS011;74765;44.538;18.668;2024-01-10T12:46:31;202.00;;;71.50;;
84523;SDS011;74765;44.538;18.668;2024-01-10T12:49:01;188.65;;;62.83;;
84523;SDS011;74765;44.538;18.668;2024-01-10T12:51:32;195.85;;;64.40;;
84523;SDS011;74765;44.538;18.668;2024-01-10T12:54:02;193.02;;;62.83;;
84523;SDS011;74765;44.538;18.668;2024-01-10T12:56:34;205.77;;;67.68;;
84523;SDS011;74765;44.538;18.668;2024-01-10T12:59:00;220.00;;;75.35;;
84523;SDS011;74765;44.538;18.668;2024-01-10T13:01:27;254.32;;;78.78;;
84523;SDS011;74765;44.538;18.668;2024-01-10T13:03:53;242.77;;;76.68;;
84523;SDS011;74765;44.538;18.668;2024-01-10T13:06:20;256.75;;;81.20;;
84523;SDS011;74765;44.538;18.668;2024-01-10T13:08:48;284.92;;;87.82;;
84523;SDS011;74765;44.538;18.668;2024-01-10T13:11:14;297.38;;;95.35;;
84523;SDS011;74765;44.538;18.668;2024-01-10T13:13:40;289.13;;;86.00;;
84523;SDS011;74765;44.538;18.668;2024-01-10T13:16:08;287.50;;;91.45;;
84523;SDS011;74765;44.538;18.668;2024-01-10T13:18:36;317.20;;;97.78;;
84523;SDS011;74765;44.538;18.668;2024-01-10T13:21:03;304.35;;;93.10;;
84523;SDS011;74765;44.538;18.668;2024-01-10T13:23:29;319.48;;;100.18;;
84523;SDS011;74765;44.538;18.668;2024-01-10T13:25:54;335.77;;;98.55;;
84523;SDS011;74765;44.538;18.668;2024-01-10T13:28:20;316.58;;;95.50;;
84523;SDS011;74765;44.538;18.668;2024-01-10T13:30:46;347.25;;;102.93;;
84523;SDS011;74765;44.538;18.668;2024-01-10T13:33:12;351.85;;;107.10;;
84523;SDS011;74765;44.538;18.668;2024-01-10T13:35:38;301.80;;;90.30;;
84523;SDS011;74765;44.538;18.668;2024-01-10T13:38:05;322.95;;;98.60;;
84523;SDS011;74765;44.538;18.668;2024-01-10T13:40:31;351.98;;;103.22;;
84523;SDS011;74765;44.538;18.668;2024-01-10T13:42:59;304.08;;;94.13;;
84523;SDS011;74765;44.538;18.668;2024-01-10T13:45:28;335.40;;;99.97;;
84523;SDS011;74765;44.538;18.668;2024-01-10T13:47:54;411.30;;;120.72;;
84523;SDS011;74765;44.538;18.668;2024-01-10T13:50:20;393.38;;;119.20;;
84523;SDS011;74765;44.538;18.668;2024-01-10T13:52:46;390.48;;;116.97;;
84523;SDS011;74765;44.538;18.668;2024-01-10T13:55:12;395.95;;;117.93;;
84523;SDS011;74765;44.538;18.668;2024-01-10T13:57:37;407.13;;;123.53;;
84523;SDS011;74765;44.538;18.668;2024-01-10T14:00:03;394.92;;;122.75;;
84523;SDS011;74765;44.538;18.668;2024-01-10T14:02:37;377.48;;;113.63;;
84523;SDS011;74765;44.538;18.668;2024-01-10T14:05:03;416.52;;;126.00;;
84523;SDS011;74765;44.538;18.668;2024-01-10T14:07:34;420.10;;;127.32;;
84523;SDS011;74765;44.538;18.668;2024-01-10T14:10:00;386.10;;;114.97;;